createdAt,value
2022-12-13T00:02:17.041Z,0.40
2022-12-13T00:04:44.013Z,0.40
2022-12-13T00:07:13.323Z,0.40
2022-12-13T00:09:42.315Z,0.30
2022-12-13T00:12:11.272Z,0.30
2022-12-13T00:15:47.232Z,0.30
2022-12-13T00:18:14.082Z,0.40
2022-12-13T00:20:44.089Z,0.40
2022-12-13T00:23:10.899Z,0.40
2022-12-13T00:25:37.701Z,0.30
2022-12-13T00:28:04.642Z,0.40
2022-12-13T00:30:34.174Z,0.30
2022-12-13T00:33:01.094Z,0.40
2022-12-13T00:35:28.282Z,0.30
2022-12-13T00:37:55.171Z,0.40
2022-12-13T00:40:21.945Z,0.30
2022-12-13T00:42:51.202Z,0.40
2022-12-13T00:45:18.216Z,0.40
2022-12-13T00:47:46.238Z,0.40
2022-12-13T00:50:13.058Z,0.30
2022-12-13T00:52:44.576Z,0.30
2022-12-13T00:55:11.659Z,0.30
2022-12-13T00:57:38.689Z,0.30
2022-12-13T01:00:06.939Z,0.30
2022-12-13T01:02:36.229Z,0.30
2022-12-13T01:05:06.245Z,0.30
2022-12-13T01:07:33.086Z,0.30
2022-12-13T01:09:59.960Z,0.30
2022-12-13T01:12:29.067Z,0.40
2022-12-13T01:14:58.461Z,0.40
2022-12-13T01:17:25.577Z,0.40
2022-12-13T01:19:52.429Z,0.30
2022-12-13T01:22:19.466Z,0.30
2022-12-13T01:24:48.491Z,0.30
2022-12-13T01:27:15.726Z,0.30
2022-12-13T01:29:42.538Z,0.30
2022-12-13T01:32:09.371Z,0.30
2022-12-13T01:34:36.160Z,0.30
2022-12-13T01:37:05.338Z,0.30
2022-12-13T01:39:32.124Z,0.30
2022-12-13T01:42:05.277Z,0.30
2022-12-13T01:44:56.029Z,0.40
2022-12-13T01:47:36.574Z,0.40
2022-12-13T01:50:09.609Z,0.30
2022-12-13T01:52:37.150Z,0.30
2022-12-13T01:55:07.631Z,0.30
2022-12-13T01:57:45.394Z,0.30
2022-12-13T02:00:17.123Z,0.30
2022-12-13T02:02:50.570Z,0.30
2022-12-13T02:05:26.678Z,0.30
2022-12-13T02:07:54.079Z,0.30
2022-12-13T02:10:23.927Z,0.30
2022-12-13T02:12:53.401Z,0.30
2022-12-13T02:15:21.590Z,0.30
2022-12-13T02:18:21.815Z,0.30
2022-12-13T02:21:04.390Z,0.30
2022-12-13T02:24:09.674Z,0.30
2022-12-13T02:26:48.040Z,0.30
2022-12-13T02:29:56.663Z,0.30
2022-12-13T02:33:04.889Z,0.30
2022-12-13T02:35:31.698Z,0.30
2022-12-13T02:38:22.970Z,0.40
2022-12-13T02:41:06.888Z,0.40
2022-12-13T02:44:01.069Z,0.40
2022-12-13T02:46:32.714Z,0.30
2022-12-13T02:49:00.848Z,0.30
2022-12-13T02:51:28.719Z,0.30
2022-12-13T02:53:55.637Z,0.40
2022-12-13T02:56:22.461Z,0.40
2022-12-13T02:58:55.061Z,0.40
2022-12-13T03:01:40.319Z,0.40
2022-12-13T03:04:59.504Z,0.40
2022-12-13T03:07:33.782Z,0.40
2022-12-13T03:10:09.529Z,0.40
2022-12-13T03:13:22.160Z,0.30
2022-12-13T03:15:57.405Z,0.40
2022-12-13T03:18:29.945Z,0.40
2022-12-13T03:20:59.266Z,0.30
2022-12-13T03:23:29.416Z,0.30
2022-12-13T03:26:18.400Z,0.30
2022-12-13T03:28:45.314Z,0.30
2022-12-13T03:31:14.580Z,0.30
2022-12-13T03:33:47.024Z,0.30
2022-12-13T03:36:14.378Z,0.30
2022-12-13T03:38:44.874Z,0.30
2022-12-13T03:41:15.066Z,0.30
2022-12-13T03:43:44.311Z,0.30
2022-12-13T03:46:11.260Z,0.30
2022-12-13T03:48:38.420Z,0.30
2022-12-13T03:51:08.004Z,0.30
2022-12-13T03:53:34.897Z,0.30
2022-12-13T03:56:04.098Z,0.30
2022-12-13T03:58:35.105Z,0.30
2022-12-13T04:01:08.855Z,0.30
2022-12-13T04:03:36.864Z,0.30
2022-12-13T04:06:07.020Z,0.30
2022-12-13T04:08:35.245Z,0.30
2022-12-13T04:11:22.776Z,0.30
2022-12-13T04:14:21.905Z,0.30
2022-12-13T04:16:52.644Z,0.30
2022-12-13T04:19:23.742Z,0.30
2022-12-13T04:21:53.997Z,0.30
2022-12-13T04:24:31.219Z,0.30
2022-12-13T04:26:59.183Z,0.30
2022-12-13T04:29:34.731Z,0.30
2022-12-13T04:32:05.414Z,0.40
2022-12-13T04:34:52.267Z,0.30
2022-12-13T04:37:30.188Z,0.30
2022-12-13T04:40:00.604Z,0.30
2022-12-13T04:42:31.537Z,0.30
2022-12-13T04:44:58.500Z,0.30
2022-12-13T04:47:27.516Z,0.30
2022-12-13T04:49:55.073Z,0.30
2022-12-13T04:52:22.152Z,0.30
2022-12-13T04:54:55.565Z,0.40
2022-12-13T04:57:23.307Z,0.40
2022-12-13T04:59:50.138Z,0.40
2022-12-13T05:02:23.674Z,0.40
2022-12-13T05:04:54.114Z,0.40
2022-12-13T05:07:23.287Z,0.30
2022-12-13T05:09:50.074Z,0.30
2022-12-13T05:12:23.180Z,0.30
2022-12-13T05:14:51.661Z,0.30
2022-12-13T05:17:20.868Z,0.30
2022-12-13T05:19:47.888Z,0.30
2022-12-13T05:22:20.711Z,0.30
2022-12-13T05:24:48.215Z,0.30
2022-12-13T05:27:25.780Z,0.30
2022-12-13T05:30:04.348Z,0.40
2022-12-13T05:32:43.447Z,0.40
2022-12-13T05:35:22.207Z,0.40
2022-12-13T05:37:53.957Z,0.40
2022-12-13T05:40:23.079Z,0.40
2022-12-13T05:42:52.111Z,0.40
2022-12-13T05:45:28.175Z,0.40
2022-12-13T05:47:55.035Z,0.40
2022-12-13T05:50:25.093Z,0.40
2022-12-13T05:52:52.492Z,0.40
2022-12-13T05:55:20.141Z,0.30
2022-12-13T05:57:50.703Z,0.40
2022-12-13T06:00:29.681Z,0.30
2022-12-13T06:03:01.745Z,0.40
2022-12-13T06:05:30.017Z,0.40
2022-12-13T06:07:58.168Z,0.30
2022-12-13T06:10:35.006Z,0.30
2022-12-13T06:13:22.022Z,0.30
2022-12-13T06:16:01.463Z,0.30
2022-12-13T06:18:34.848Z,0.30
2022-12-13T06:21:10.140Z,0.40
2022-12-13T06:23:37.166Z,0.40
2022-12-13T06:26:06.483Z,0.40
2022-12-13T06:28:33.420Z,0.40
2022-12-13T06:31:04.931Z,0.40
2022-12-13T06:33:38.919Z,0.40
2022-12-13T06:36:08.594Z,0.30
2022-12-13T06:38:35.451Z,0.30
2022-12-13T06:41:15.344Z,0.30
2022-12-13T06:43:43.837Z,0.30
2022-12-13T06:46:11.282Z,0.30
2022-12-13T06:48:40.584Z,0.30
2022-12-13T06:51:10.987Z,0.30
2022-12-13T06:53:41.255Z,0.30
2022-12-13T06:56:13.306Z,0.30
2022-12-13T06:58:43.143Z,0.20
2022-12-13T07:01:23.988Z,0.30
2022-12-13T07:03:54.299Z,0.20
2022-12-13T07:06:24.776Z,0.20
2022-12-13T07:08:54.024Z,0.20
2022-12-13T07:11:26.739Z,0.20
2022-12-13T07:13:56.119Z,0.20
2022-12-13T07:16:24.085Z,0.20
2022-12-13T07:19:22.814Z,0.20
2022-12-13T07:21:52.621Z,0.20
2022-12-13T07:24:19.547Z,0.20
2022-12-13T07:26:49.676Z,0.20
2022-12-13T07:29:22.490Z,0.20
2022-12-13T07:31:50.171Z,0.20
2022-12-13T07:34:19.164Z,0.20
2022-12-13T07:36:46.066Z,0.20
2022-12-13T07:39:12.927Z,0.20
2022-12-13T07:41:39.742Z,0.30
2022-12-13T07:44:07.542Z,0.30
2022-12-13T07:46:34.542Z,0.30
2022-12-13T07:49:03.041Z,0.30
2022-12-13T07:51:30.071Z,0.30
2022-12-13T07:53:57.842Z,0.30
2022-12-13T07:56:24.692Z,0.20
2022-12-13T07:58:51.545Z,0.20
2022-12-13T08:01:21.004Z,0.30
2022-12-13T08:03:51.109Z,0.30
2022-12-13T08:06:19.934Z,0.20
2022-12-13T08:08:46.936Z,0.20
2022-12-13T08:11:17.624Z,0.20
2022-12-13T08:13:44.584Z,0.30
2022-12-13T08:20:37.686Z,0.30
2022-12-13T08:23:04.558Z,0.30
2022-12-13T08:25:34.142Z,0.30
2022-12-13T08:28:02.113Z,0.40
2022-12-13T08:30:30.852Z,0.40
2022-12-13T08:32:57.801Z,0.40
2022-12-13T08:35:33.601Z,0.40
2022-12-13T08:38:01.034Z,0.30
2022-12-13T08:40:28.017Z,0.30
2022-12-13T08:42:58.901Z,0.40
2022-12-13T08:45:28.164Z,0.40
2022-12-13T08:48:00.371Z,0.30
2022-12-13T08:50:28.090Z,0.30
2022-12-13T08:52:54.952Z,0.30
2022-12-13T08:55:25.197Z,0.30
2022-12-13T08:58:00.994Z,0.30
2022-12-13T09:00:28.252Z,0.40
2022-12-13T09:03:04.870Z,0.40
2022-12-13T09:05:35.206Z,0.40
2022-12-13T09:08:04.191Z,0.50
2022-12-13T09:10:38.291Z,0.50
2022-12-13T09:13:11.441Z,0.50
2022-12-13T09:15:45.802Z,0.60
2022-12-13T09:18:15.135Z,0.50
2022-12-13T09:20:53.219Z,0.50
2022-12-13T09:23:24.462Z,0.60
2022-12-13T09:26:05.365Z,0.60
2022-12-13T09:28:34.857Z,0.70
2022-12-13T09:31:05.971Z,0.70
2022-12-13T09:33:33.282Z,0.70
2022-12-13T09:36:12.990Z,0.70
2022-12-13T09:38:42.861Z,0.80
2022-12-13T09:41:28.933Z,0.80
2022-12-13T09:44:04.623Z,0.80
2022-12-13T09:46:44.922Z,0.80
2022-12-13T09:49:25.217Z,0.80
2022-12-13T09:52:11.156Z,0.80
2022-12-13T09:54:47.863Z,0.80
2022-12-13T09:57:31.073Z,0.80
2022-12-13T10:00:06.552Z,0.80
2022-12-13T10:02:47.315Z,0.80
2022-12-13T10:05:39.370Z,0.70
2022-12-13T10:08:15.123Z,0.70
2022-12-13T10:10:45.397Z,0.70
2022-12-13T10:13:21.837Z,0.70
2022-12-13T10:15:53.813Z,0.70
2022-12-13T10:18:35.308Z,0.70
2022-12-13T10:21:04.505Z,0.80
2022-12-13T10:23:42.751Z,0.80
2022-12-13T10:26:24.780Z,0.80
2022-12-13T10:29:03.017Z,0.70
2022-12-13T10:31:39.833Z,0.80
2022-12-13T10:34:24.387Z,0.80
2022-12-13T10:36:53.848Z,0.70
2022-12-13T10:39:45.568Z,0.80
2022-12-13T10:42:22.614Z,0.80
2022-12-13T10:45:23.341Z,0.80
2022-12-13T10:47:50.998Z,0.80
2022-12-13T10:50:28.145Z,0.80
2022-12-13T10:52:58.705Z,0.80
2022-12-13T10:55:34.912Z,0.90
2022-12-13T10:58:07.524Z,0.90
2022-12-13T11:00:45.264Z,0.90
2022-12-13T11:03:33.334Z,0.90
2022-12-13T11:06:17.954Z,0.90
2022-12-13T11:08:46.986Z,0.90
2022-12-13T11:11:17.311Z,0.90
2022-12-13T11:13:53.458Z,0.90
2022-12-13T11:16:40.648Z,0.90
2022-12-13T11:19:25.449Z,0.90
2022-12-13T11:21:54.287Z,0.90
2022-12-13T11:24:34.945Z,1.00
2022-12-13T11:27:07.358Z,0.90
2022-12-13T11:29:52.787Z,0.90
2022-12-13T11:32:58.735Z,0.90
2022-12-13T11:35:46.832Z,1.00
2022-12-13T11:38:34.398Z,1.00
2022-12-13T11:41:11.212Z,1.00
2022-12-13T11:44:03.465Z,1.00
2022-12-13T11:46:46.550Z,1.00
2022-12-13T11:49:22.930Z,1.10
2022-12-13T11:52:22.538Z,1.00
2022-12-13T11:54:52.309Z,1.10
2022-12-13T11:57:47.686Z,1.10
2022-12-13T12:00:44.791Z,1.10
2022-12-13T12:03:34.117Z,1.20
2022-12-13T12:06:25.705Z,1.20
2022-12-13T12:09:12.111Z,1.20
2022-12-13T12:11:54.058Z,1.30
2022-12-13T12:14:41.072Z,1.30
2022-12-13T12:17:14.475Z,1.30
2022-12-13T12:19:46.731Z,1.30
2022-12-13T12:22:37.381Z,1.30
2022-12-13T12:25:26.083Z,1.30
2022-12-13T12:28:27.255Z,1.20
2022-12-13T12:31:50.961Z,1.20
2022-12-13T12:34:32.088Z,1.20
2022-12-13T12:37:13.872Z,1.20
2022-12-13T12:40:09.599Z,1.20
2022-12-13T12:43:14.362Z,1.20
2022-12-13T12:46:02.577Z,1.20
2022-12-13T12:49:01.788Z,1.10
2022-12-13T12:52:00.205Z,1.10
2022-12-13T12:55:02.912Z,1.10
2022-12-13T12:57:50.978Z,1.10
2022-12-13T13:00:19.663Z,1.10
2022-12-13T13:03:17.411Z,1.10
2022-12-13T13:05:58.585Z,1.10
2022-12-13T13:08:37.538Z,1.10
2022-12-13T13:11:05.865Z,1.10
2022-12-13T13:14:01.656Z,1.10
2022-12-13T13:16:42.373Z,1.20
2022-12-13T13:19:12.161Z,1.10
2022-12-13T13:22:01.560Z,1.10
2022-12-13T13:24:32.893Z,1.10
2022-12-13T13:27:32.767Z,1.10
2022-12-13T13:30:16.094Z,1.20
2022-12-13T13:32:48.438Z,1.10
2022-12-13T13:35:33.272Z,1.10
2022-12-13T13:38:24.489Z,1.10
2022-12-13T13:40:52.115Z,1.10
2022-12-13T13:43:32.974Z,1.10
2022-12-13T13:46:00.165Z,1.10
2022-12-13T13:48:48.160Z,1.10
2022-12-13T13:51:30.153Z,1.10
2022-12-13T13:54:22.311Z,1.10
2022-12-13T13:57:28.917Z,1.10
2022-12-13T14:00:47.408Z,1.10
2022-12-13T14:03:37.264Z,1.10
2022-12-13T14:06:12.934Z,1.10
2022-12-13T14:08:50.726Z,1.10
2022-12-13T14:11:41.937Z,1.10
2022-12-13T14:14:52.576Z,1.10
2022-12-13T14:17:34.364Z,1.10
2022-12-13T14:20:04.034Z,1.10
2022-12-13T14:22:44.357Z,1.20
2022-12-13T14:25:32.400Z,1.10
2022-12-13T14:28:20.503Z,1.10
2022-12-13T14:30:48.173Z,1.10
2022-12-13T14:33:26.452Z,1.10
2022-12-13T14:35:56.054Z,1.10
2022-12-13T14:38:31.192Z,1.10
2022-12-13T14:41:03.318Z,1.10
2022-12-13T14:43:32.369Z,1.10
2022-12-13T14:46:07.347Z,1.10
2022-12-13T14:48:43.248Z,1.00
2022-12-13T14:51:39.704Z,1.00
2022-12-13T14:54:08.316Z,1.00
2022-12-13T14:56:57.829Z,1.00
2022-12-13T14:59:27.490Z,1.00
2022-12-13T15:01:58.882Z,1.00
2022-12-13T15:04:27.971Z,1.00
2022-12-13T15:07:08.714Z,0.90
2022-12-13T15:09:40.509Z,1.00
2022-12-13T15:12:25.363Z,0.90
2022-12-13T15:15:02.577Z,0.90
2022-12-13T15:17:39.727Z,0.90
2022-12-13T15:20:27.827Z,0.80
2022-12-13T15:23:26.415Z,0.80
2022-12-13T15:26:03.961Z,0.80
2022-12-13T15:28:38.971Z,0.80
2022-12-13T15:31:09.243Z,0.80
2022-12-13T15:33:48.031Z,0.80
2022-12-13T15:36:20.484Z,0.80
2022-12-13T15:38:54.696Z,0.80
2022-12-13T15:41:47.722Z,0.80
2022-12-13T15:44:23.026Z,0.80
2022-12-13T15:46:51.916Z,0.70
2022-12-13T15:49:37.862Z,0.70
2022-12-13T15:52:36.348Z,0.70
2022-12-13T15:55:06.901Z,0.60
2022-12-13T15:57:51.266Z,0.60
2022-12-13T16:00:18.366Z,0.60
2022-12-13T16:03:16.144Z,0.60
2022-12-13T16:05:54.781Z,0.60
2022-12-13T16:08:29.824Z,0.60
2022-12-13T16:10:58.231Z,0.60
2022-12-13T16:13:31.579Z,0.60
2022-12-13T16:16:26.838Z,0.50
2022-12-13T16:18:58.467Z,0.50
2022-12-13T16:21:25.747Z,0.40
2022-12-13T16:23:52.893Z,0.30
2022-12-13T16:26:26.216Z,0.40
2022-12-13T16:28:59.472Z,0.40
2022-12-13T16:31:31.192Z,0.40
2022-12-13T16:33:58.273Z,0.40
2022-12-13T16:36:25.138Z,0.40
2022-12-13T16:38:52.266Z,0.30
2022-12-13T16:41:19.259Z,0.30
2022-12-13T16:43:58.637Z,0.30
2022-12-13T16:47:13.813Z,0.20
2022-12-13T16:49:28.878Z,0.20
2022-12-13T16:51:58.512Z,0.20
2022-12-13T16:54:25.940Z,0.20
2022-12-13T16:56:54.045Z,0.20
2022-12-13T16:59:26.086Z,0.20
2022-12-13T17:01:57.622Z,0.10
2022-12-13T17:04:29.794Z,0.10
2022-12-13T17:06:56.639Z,0.10
2022-12-13T17:09:26.137Z,0.10
2022-12-13T17:11:53.356Z,0.00
2022-12-13T17:14:20.265Z,0.00
2022-12-13T17:16:47.344Z,0.00
2022-12-13T17:19:17.502Z,-0.10
2022-12-13T17:21:44.636Z,-0.10
2022-12-13T17:24:11.541Z,-0.10
2022-12-13T17:26:41.081Z,-0.10
2022-12-13T17:29:21.043Z,-0.10
2022-12-13T17:31:47.907Z,-0.10
2022-12-13T17:34:14.903Z,-0.20
2022-12-13T17:36:44.736Z,-0.20
2022-12-13T17:39:12.483Z,-0.20
2022-12-13T17:41:44.037Z,-0.20
2022-12-13T17:44:22.382Z,-0.20
2022-12-13T17:46:54.959Z,-0.20
2022-12-13T17:49:25.086Z,-0.30
2022-12-13T17:51:54.046Z,-0.30
2022-12-13T17:54:25.818Z,-0.30
2022-12-13T17:56:55.472Z,-0.30
2022-12-13T17:59:23.175Z,-0.30
2022-12-13T18:01:50.831Z,-0.30
2022-12-13T18:04:17.770Z,-0.40
2022-12-13T18:06:44.830Z,-0.40
2022-12-13T18:09:15.321Z,-0.40
2022-12-13T18:11:42.290Z,-0.40
2022-12-13T18:14:09.316Z,-0.40
2022-12-13T18:16:38.535Z,-0.50
2022-12-13T18:19:14.734Z,-0.40
2022-12-13T18:21:46.231Z,-0.50
2022-12-13T18:24:13.211Z,-0.60
2022-12-13T18:26:40.073Z,-0.60
2022-12-13T18:29:06.986Z,-0.60
2022-12-13T18:31:33.950Z,-0.60
2022-12-13T18:34:01.004Z,-0.60
2022-12-13T18:36:30.300Z,-0.60
2022-12-13T18:38:57.462Z,-0.70
2022-12-13T18:41:28.917Z,-0.70
2022-12-13T18:43:59.565Z,-0.50
2022-12-13T18:46:52.336Z,-0.70
2022-12-13T18:49:19.269Z,-0.70
2022-12-13T18:51:46.084Z,-0.80
2022-12-13T18:54:13.061Z,-0.80
2022-12-13T18:56:44.111Z,-0.90
2022-12-13T18:59:12.398Z,-0.90
2022-12-13T19:01:39.311Z,-1.00
2022-12-13T19:04:08.442Z,-1.00
2022-12-13T19:06:35.324Z,-1.00
2022-12-13T19:09:04.331Z,-1.00
2022-12-13T19:11:34.006Z,-1.00
2022-12-13T19:14:00.854Z,-1.00
2022-12-13T19:16:28.027Z,-1.00
2022-12-13T19:18:57.328Z,-1.10
2022-12-13T19:21:24.249Z,-1.10
2022-12-13T19:23:56.879Z,-1.20
2022-12-13T19:26:26.336Z,-1.20
2022-12-13T19:28:53.209Z,-1.20
2022-12-13T19:31:28.524Z,-1.30
2022-12-13T19:34:01.847Z,-1.30
2022-12-13T19:36:30.147Z,-1.30
2022-12-13T19:38:59.719Z,-1.30
2022-12-13T19:41:27.113Z,-1.30
2022-12-13T19:43:56.495Z,-1.40
2022-12-13T19:46:23.822Z,-1.40
2022-12-13T19:48:51.042Z,-1.40
2022-12-13T19:51:17.939Z,-1.50
2022-12-13T19:53:44.864Z,-1.50
2022-12-13T19:56:15.184Z,-1.50
2022-12-13T19:58:44.362Z,-1.60
2022-12-13T20:01:12.034Z,-1.50
2022-12-13T20:03:41.345Z,-1.50
2022-12-13T20:06:10.812Z,-1.50
2022-12-13T20:08:37.745Z,-1.50
2022-12-13T20:11:06.391Z,-1.50
2022-12-13T20:13:36.875Z,-1.60
2022-12-13T20:16:04.946Z,-1.60
2022-12-13T20:18:32.119Z,-1.60
2022-12-13T20:21:13.357Z,-1.70
2022-12-13T20:23:49.022Z,-1.60
2022-12-13T20:26:18.849Z,-1.60
2022-12-13T20:28:46.035Z,-1.70
2022-12-13T20:31:20.988Z,-1.70
2022-12-13T20:33:58.457Z,-1.70
2022-12-13T20:36:28.581Z,-1.70
2022-12-13T20:38:57.422Z,-1.70
2022-12-13T20:41:26.729Z,-1.70
2022-12-13T20:43:55.315Z,-1.70
2022-12-13T20:46:23.094Z,-1.80
2022-12-13T20:48:50.728Z,-1.80
2022-12-13T20:51:25.371Z,-1.80
2022-12-13T20:53:53.555Z,-1.80
2022-12-13T20:56:27.503Z,-1.80
2022-12-13T20:58:57.491Z,-1.80
2022-12-13T21:01:27.300Z,-1.80
2022-12-13T21:03:56.418Z,-1.80
2022-12-13T21:06:23.339Z,-1.90
2022-12-13T21:08:54.614Z,-2.00
2022-12-13T21:11:30.187Z,-2.00
2022-12-13T21:14:02.269Z,-2.00
2022-12-13T21:16:39.038Z,-2.00
2022-12-13T21:19:08.471Z,-2.00
2022-12-13T21:21:35.772Z,-2.00
2022-12-13T21:24:05.298Z,-2.10
2022-12-13T21:26:36.098Z,-2.10
2022-12-13T21:29:06.304Z,-2.00
2022-12-13T21:31:36.681Z,-2.00
2022-12-13T21:34:05.388Z,-2.00
2022-12-13T21:36:39.504Z,-2.00
2022-12-13T21:39:14.230Z,-2.00
2022-12-13T21:41:42.845Z,-2.00
2022-12-13T21:44:15.050Z,-2.10
2022-12-13T21:49:29.554Z,-2.10
2022-12-13T21:51:56.407Z,-2.10
2022-12-13T21:54:23.253Z,-2.10
2022-12-13T21:57:08.590Z,-2.10
2022-12-13T21:59:37.834Z,-2.10
2022-12-13T22:02:12.793Z,-2.10
2022-12-13T22:04:46.031Z,-2.10
2022-12-13T22:07:26.275Z,-2.10
2022-12-13T22:09:54.227Z,-2.20
2022-12-13T22:12:29.138Z,-2.20
2022-12-13T22:14:55.999Z,-2.20
2022-12-13T22:17:34.320Z,-2.20
2022-12-13T22:20:04.058Z,-2.10
2022-12-13T22:22:31.116Z,-2.10
2022-12-13T22:25:00.136Z,-2.10
2022-12-13T22:27:31.684Z,-2.10
2022-12-13T22:29:58.835Z,-2.10
2022-12-13T22:32:28.554Z,-2.10
2022-12-13T22:34:55.861Z,-2.10
2022-12-13T22:37:23.141Z,-2.10
2022-12-13T22:39:50.258Z,-2.10
2022-12-13T22:42:17.265Z,-2.20
2022-12-13T22:44:46.542Z,-2.20
2022-12-13T22:47:13.411Z,-2.20
2022-12-13T22:49:40.304Z,-2.10
2022-12-13T22:52:09.538Z,-2.20
2022-12-13T22:54:36.539Z,-2.20
2022-12-13T22:57:03.594Z,-2.20
2022-12-13T22:59:33.651Z,-2.20
2022-12-13T23:02:02.880Z,-2.20
2022-12-13T23:04:32.676Z,-2.10
2022-12-13T23:06:59.632Z,-2.20
2022-12-13T23:09:26.558Z,-2.10
2022-12-13T23:12:12.105Z,-2.10
2022-12-13T23:14:41.162Z,-2.10
2022-12-13T23:17:08.029Z,-2.10
2022-12-13T23:19:52.876Z,-2.10
2022-12-13T23:22:22.482Z,-2.20
2022-12-13T23:24:52.397Z,-2.20
2022-12-13T23:27:25.459Z,-2.20
2022-12-13T23:29:52.315Z,-2.20
2022-12-13T23:32:19.405Z,-2.20
2022-12-13T23:34:48.778Z,-2.20
2022-12-13T23:37:17.974Z,-2.20
2022-12-13T23:39:45.813Z,-2.30
2022-12-13T23:42:12.613Z,-2.20
2022-12-13T23:44:39.417Z,-2.30
2022-12-13T23:47:06.227Z,-2.20
2022-12-13T23:49:33.074Z,-2.20
2022-12-13T23:51:59.906Z,-2.30
2022-12-13T23:54:26.696Z,-2.20
2022-12-13T23:56:54.074Z,-2.20
2022-12-13T23:59:20.929Z,-2.20
